Metar Luftfahrt Wetterdaten     LHBP Budapest Liszt Ferenc International Airport
Temperatur
4°C Temperatur
0°C Taupunkt
75% Feuchtigkeit



Wind
3 KM/H
2 MPH
1 M/S
2 KTS



Kein Wind
Nord
Aktuelle Wetterlage

Klar Klar
Luftdruck 1018.92 (hPa) - 30.09 (inHg)
Sichtweite 5.6 (Meile) - 9 (km)
Flughafen
Flughafen Code LHBP

Position : Budapest Liszt Ferenc International Airport
Entfernung: 14 (km)

Metar:
LHBP 040800Z VRB02KT 9000 NSC 04/M00 Q1019 NOSIG

Zeit: 2021-03-04 09:00 CET